Time;durP1;ratioP1;P1;durP2;ratioP2;P2;SDS_P1;SDS_P2;PMS_P1;PMS_P2;Temp;Humidity;BMP_temperature;BMP_pressure;BME280_temperature;BME280_humidity;BME280_pressure;Samples;Min_cycle;Max_cycle;Signal;HPM_P1;HPM_P2
2021/12/11 00:01:43;;;;;;;2.90;1.05;;;20.50;82.90;;;;;;5072755;28;20464;-57
2021/12/11 00:04:34;;;;;;;5.13;1.20;;;20.60;82.90;;;;;;5072007;28;20581;-58
2021/12/11 00:07:06;;;;;;;2.63;0.93;;;20.60;82.40;;;;;;5071889;28;20040;-56
2021/12/11 00:09:39;;;;;;;1.55;0.93;;;20.60;82.80;;;;;;5074116;28;20029;-56
2021/12/11 00:12:15;;;;;;;6.13;1.05;;;20.60;81.20;;;;;;5075233;28;20029;-55
2021/12/11 00:14:46;;;;;;;4.13;1.08;;;20.70;82.20;;;;;;5075035;28;20036;-53
2021/12/11 00:17:21;;;;;;;2.90;1.02;;;20.70;81.70;;;;;;5076500;28;20020;-58
2021/12/11 00:19:48;;;;;;;2.90;1.02;;;20.80;80.60;;;;;;5076202;28;20462;-61
2021/12/11 00:22:19;;;;;;;3.42;1.10;;;20.80;80.80;;;;;;5076373;28;20403;-60
2021/12/11 00:24:47;;;;;;;4.38;1.25;;;20.80;81.30;;;;;;5076409;28;20028;-54
2021/12/11 00:27:23;;;;;;;2.25;1.10;;;20.90;81.40;;;;;;5075880;28;20375;-57
2021/12/11 00:29:51;;;;;;;4.88;1.20;;;20.90;80.10;;;;;;5076236;28;20405;-59
2021/12/11 00:32:30;;;;;;;3.78;1.05;;;21.00;78.90;;;;;;5076099;28;20067;-57
2021/12/11 00:35:09;;;;;;;2.92;1.23;;;21.10;80.40;;;;;;5076157;28;20127;-58
2021/12/11 00:37:38;;;;;;;3.60;1.05;;;21.10;80.50;;;;;;5076284;28;20111;-51
2021/12/11 00:40:18;;;;;;;3.50;0.90;;;21.10;80.30;;;;;;5075268;28;20032;-55
2021/12/11 00:42:51;;;;;;;3.30;1.45;;;21.20;80.10;;;;;;5075658;28;20108;-54
2021/12/11 00:45:21;;;;;;;4.03;0.90;;;21.20;79.20;;;;;;5075586;28;20031;-60
2021/12/11 00:47:52;;;;;;;1.80;1.27;;;21.30;79.30;;;;;;5074793;28;20038;-55
2021/12/11 00:50:25;;;;;;;3.58;1.40;;;21.30;80.00;;;;;;5075517;28;20034;-58
2021/12/11 00:53:06;;;;;;;4.63;1.50;;;21.40;79.30;;;;;;5075237;28;20049;-55
2021/12/11 00:55:42;;;;;;;3.67;1.20;;;21.40;79.50;;;;;;5074071;28;20162;-53
2021/12/11 00:58:29;;;;;;;4.13;1.20;;;21.40;79.10;;;;;;5075051;28;20517;-51
2021/12/11 01:01:08;;;;;;;6.18;1.35;;;21.50;78.40;;;;;;5074108;28;20035;-56
2021/12/11 01:03:47;;;;;;;3.58;1.02;;;21.50;79.20;;;;;;5075441;28;20536;-60
2021/12/11 01:06:25;;;;;;;3.88;1.00;;;21.50;78.40;;;;;;5075034;28;20031;-56
2021/12/11 01:09:00;;;;;;;4.57;1.15;;;21.60;77.60;;;;;;5075539;28;20033;-57
2021/12/11 01:11:41;;;;;;;2.90;1.00;;;21.60;78.40;;;;;;5075271;28;20482;-57
2021/12/11 01:14:33;;;;;;;2.95;1.00;;;21.60;76.50;;;;;;5074465;28;20089;-54
2021/12/11 01:17:13;;;;;;;2.83;1.40;;;21.70;78.40;;;;;;5074836;28;20044;-57
2021/12/11 01:19:45;;;;;;;3.35;1.42;;;21.70;78.40;;;;;;5074658;28;20028;-62
2021/12/11 01:22:32;;;;;;;4.87;1.40;;;21.80;78.00;;;;;;5073649;28;20029;-60
2021/12/11 01:25:02;;;;;;;4.75;1.38;;;21.80;77.80;;;;;;5075138;28;20063;-56
2021/12/11 01:27:29;;;;;;;4.05;1.15;;;21.80;78.10;;;;;;5074995;28;20120;-56
2021/12/11 01:29:59;;;;;;;2.45;1.38;;;21.80;76.70;;;;;;5074557;28;20115;-57
2021/12/11 01:32:29;;;;;;;2.17;1.00;;;21.80;77.20;;;;;;5074629;28;20379;-60
2021/12/11 01:35:00;;;;;;;2.13;1.00;;;21.80;78.00;;;;;;5065645;28;20029;-54
2021/12/11 01:37:28;;;;;;;3.08;1.27;;;21.80;76.90;;;;;;5068252;28;20107;-45
2021/12/11 01:39:55;;;;;;;2.10;1.10;;;21.80;78.00;;;;;;5068791;28;20410;-51
2021/12/11 01:42:28;;;;;;;2.22;1.20;;;21.90;78.10;;;;;;5071485;28;20028;-49
2021/12/11 01:44:58;;;;;;;4.63;1.10;;;21.90;77.50;;;;;;5073025;28;20109;-54
2021/12/11 01:47:35;;;;;;;3.35;1.27;;;22.00;77.80;;;;;;5065790;28;20028;-49
2021/12/11 01:50:19;;;;;;;2.78;1.30;;;22.00;76.80;;;;;;5072021;28;20421;-51
2021/12/11 01:52:55;;;;;;;4.32;1.35;;;22.10;77.10;;;;;;5072203;28;20041;-51
2021/12/11 01:55:41;;;;;;;4.10;1.00;;;22.10;77.00;;;;;;5072684;28;20021;-52
2021/12/11 01:58:28;;;;;;;2.97;1.40;;;22.20;76.30;;;;;;5068862;28;20463;-52
2021/12/11 02:01:05;;;;;;;2.35;0.98;;;22.20;76.80;;;;;;5072140;28;20540;-54
2021/12/11 02:03:34;;;;;;;4.35;0.93;;;22.30;76.60;;;;;;5070006;28;20025;-50
2021/12/11 02:06:02;;;;;;;2.80;1.20;;;22.30;76.50;;;;;;5068900;28;20434;-51
2021/12/11 02:08:36;;;;;;;2.55;1.08;;;22.30;76.60;;;;;;5072405;28;20024;-53
2021/12/11 02:11:15;;;;;;;2.90;1.02;;;22.30;75.40;;;;;;5067327;28;20088;-56
2021/12/11 02:13:50;;;;;;;2.13;1.08;;;22.40;76.60;;;;;;5071120;28;20033;-51
2021/12/11 02:16:26;;;;;;;3.55;1.40;;;22.40;76.40;;;;;;5067754;28;20020;-61
2021/12/11 02:18:58;;;;;;;2.97;1.10;;;22.40;75.60;;;;;;5070947;28;20437;-55
2021/12/11 02:21:33;;;;;;;5.57;1.33;;;22.40;75.60;;;;;;5070314;28;20406;-57
2021/12/11 02:24:11;;;;;;;3.05;1.23;;;22.50;75.20;;;;;;5067783;28;20036;-57
2021/12/11 02:26:40;;;;;;;6.63;1.55;;;22.50;75.10;;;;;;5073153;28;20489;-56
2021/12/11 02:29:20;;;;;;;2.05;0.95;;;22.60;74.30;;;;;;5073640;28;20043;-56
2021/12/11 02:32:32;;;;;;;3.35;1.00;;;22.60;75.20;;;;;;5073352;28;20020;-59
2021/12/11 02:35:24;;;;;;;4.85;1.00;;;22.60;74.20;;;;;;5066055;28;20051;-60
2021/12/11 02:37:57;;;;;;;2.78;1.00;;;22.60;74.70;;;;;;5073315;28;20023;-55
2021/12/11 02:40:38;;;;;;;4.18;1.20;;;22.60;75.10;;;;;;5072916;28;20089;-58
2021/12/11 02:43:42;;;;;;;3.20;1.05;;;22.60;75.10;;;;;;5072969;28;20387;-60
2021/12/11 02:46:21;;;;;;;4.40;1.50;;;22.70;75.30;;;;;;5064026;28;20097;-59
2021/12/11 02:49:06;;;;;;;4.38;1.20;;;22.70;74.60;;;;;;5073577;28;20035;-59
2021/12/11 02:51:56;;;;;;;2.88;1.20;;;22.80;75.10;;;;;;5072094;28;20073;-58
2021/12/11 02:54:36;;;;;;;3.80;1.05;;;22.80;75.10;;;;;;5073483;28;20399;-53
2021/12/11 02:57:21;;;;;;;5.13;1.35;;;22.80;75.10;;;;;;5073098;28;20024;-58
2021/12/11 02:59:49;;;;;;;2.58;1.00;;;22.80;75.10;;;;;;5072994;28;20028;-58
2021/12/11 03:02:26;;;;;;;6.15;1.20;;;22.90;75.30;;;;;;5072654;28;20039;-60
2021/12/11 03:05:04;;;;;;;3.50;1.10;;;22.90;75.10;;;;;;5073209;28;20028;-54
2021/12/11 03:07:37;;;;;;;3.17;1.17;;;22.90;74.50;;;;;;5072148;28;20048;-59
2021/12/11 03:10:09;;;;;;;1.90;0.75;;;22.90;75.00;;;;;;5072948;28;20032;-58
2021/12/11 03:12:38;;;;;;;4.45;1.33;;;23.00;74.40;;;;;;5072103;28;20052;-61
2021/12/11 03:15:08;;;;;;;2.97;1.00;;;23.00;74.10;;;;;;5072947;28;20052;-59
2021/12/11 03:17:36;;;;;;;2.75;1.05;;;23.00;74.10;;;;;;5072759;28;20024;-59
2021/12/11 03:20:06;;;;;;;2.78;1.02;;;23.00;73.90;;;;;;5072645;28;20033;-61
2021/12/11 03:22:34;;;;;;;6.13;4.68;;;23.00;72.30;;;;;;5072652;28;20013;-59
2021/12/11 03:25:08;;;;;;;9.57;3.35;;;23.00;71.50;;;;;;5061833;28;20038;-60
2021/12/11 03:27:36;;;;;;;8.32;4.90;;;23.10;69.00;;;;;;5067733;28;20024;-52
2021/12/11 03:30:06;;;;;;;7.78;3.70;;;23.10;68.00;;;;;;5070060;28;20026;-52
2021/12/11 03:32:34;;;;;;;8.93;5.05;;;23.20;67.50;;;;;;5067861;28;20036;-55
2021/12/11 03:35:01;;;;;;;7.18;2.97;;;23.30;66.40;;;;;;5068769;28;20079;-53
2021/12/11 03:37:29;;;;;;;8.60;3.97;;;23.30;66.40;;;;;;5066562;28;20048;-59
2021/12/11 03:39:57;;;;;;;6.43;2.67;;;23.30;66.00;;;;;;5068634;28;20107;-54
2021/12/11 03:42:30;;;;;;;7.38;3.25;;;23.40;66.30;;;;;;5069443;28;20021;-54
2021/12/11 03:45:01;;;;;;;7.03;2.33;;;23.40;66.10;;;;;;5069343;28;20571;-59
2021/12/11 03:47:36;;;;;;;3.88;1.92;;;23.40;66.30;;;;;;5065840;28;20032;-51
2021/12/11 03:50:08;;;;;;;4.38;1.92;;;23.30;66.30;;;;;;5069527;28;20094;-59
2021/12/11 03:52:35;;;;;;;6.35;2.85;;;23.40;66.30;;;;;;5067932;28;20457;-59
2021/12/11 03:55:06;;;;;;;7.35;1.98;;;23.30;66.70;;;;;;5070245;28;20416;-54
2021/12/11 03:57:34;;;;;;;6.32;1.75;;;23.30;67.50;;;;;;5066095;28;20033;-61
2021/12/11 04:00:01;;;;;;;16.65;3.58;;;23.30;66.90;;;;;;5070036;28;20021;-55
2021/12/11 04:02:33;;;;;;;7.97;3.97;;;23.20;67.60;;;;;;5068973;28;20395;-57
2021/12/11 04:05:04;;;;;;;;;;;23.20;65.60;;;;;;5068716;28;20025;-54
2021/12/11 04:07:37;;;;;;;7.55;2.53;;;23.20;65.20;;;;;;5066643;28;20302;-56
2021/12/11 04:10:08;;;;;;;7.22;2.33;;;23.20;64.60;;;;;;5069449;28;20764;-52
2021/12/11 04:12:35;;;;;;;9.70;2.17;;;23.20;65.10;;;;;;5069806;28;20486;-56
2021/12/11 04:15:04;;;;;;;8.32;1.80;;;23.20;65.10;;;;;;5069766;28;20067;-55
2021/12/11 04:17:32;;;;;;;3.97;1.52;;;23.20;65.30;;;;;;5065163;28;20103;-57
2021/12/11 04:20:04;;;;;;;4.00;1.23;;;23.30;63.30;;;;;;5069136;28;20206;-57
2021/12/11 04:22:31;;;;;;;3.78;1.08;;;23.30;63.30;;;;;;5066193;28;20078;-54
2021/12/11 04:24:59;;;;;;;4.82;1.45;;;23.30;62.60;;;;;;5068696;28;20028;-56
2021/12/11 04:27:27;;;;;;;2.75;1.55;;;23.30;63.20;;;;;;5066825;28;20025;-56
2021/12/11 04:29:55;;;;;;;2.15;1.17;;;23.30;62.60;;;;;;5069648;28;20029;-58
2021/12/11 04:32:25;;;;;;;9.50;1.92;;;23.20;62.70;;;;;;5069287;28;20150;-58
2021/12/11 04:34:52;;;;;;;6.60;1.33;;;23.20;62.00;;;;;;5067900;28;20039;-50
2021/12/11 04:37:24;;;;;;;6.72;1.40;;;23.30;62.60;;;;;;5066573;28;20024;-55
2021/12/11 04:39:59;;;;;;;6.45;1.33;;;23.30;62.80;;;;;;5069585;28;20021;-59
2021/12/11 04:42:50;;;;;;;9.48;1.63;;;23.30;63.20;;;;;;5067948;28;20067;-55
2021/12/11 04:45:28;;;;;;;4.03;1.58;;;23.30;63.20;;;;;;5066769;28;20166;-56
2021/12/11 04:48:03;;;;;;;7.15;1.60;;;23.30;63.00;;;;;;5064897;28;20463;-58
2021/12/11 04:50:45;;;;;;;3.67;1.20;;;23.20;62.90;;;;;;5069255;28;20028;-54
2021/12/11 04:53:37;;;;;;;4.70;1.67;;;23.20;62.90;;;;;;5065592;28;20040;-53
2021/12/11 05:01:50;;;;;;;5.93;1.63;;;23.10;63.80;;;;;;5070828;28;20075;-56
2021/12/11 05:09:40;;;;;;;4.13;1.08;;;23.10;63.70;;;;;;5076233;28;20035;-45
2021/12/11 05:12:29;;;;;;;5.22;0.85;;;23.10;63.60;;;;;;5074531;28;20523;-63
2021/12/11 05:14:57;;;;;;;7.20;1.52;;;23.10;63.70;;;;;;5073640;28;20036;-59
2021/12/11 05:17:25;;;;;;;10.93;3.65;;;23.10;64.00;;;;;;5074768;28;20073;-59
2021/12/11 05:19:53;;;;;;;12.05;3.08;;;23.10;64.30;;;;;;5075253;28;20471;-63
2021/12/11 05:22:20;;;;;;;7.32;1.83;;;23.10;64.70;;;;;;5075443;28;20052;-63
2021/12/11 05:24:52;;;;;;;9.20;2.40;;;23.00;65.00;;;;;;5074105;28;20387;-56
2021/12/11 05:27:20;;;;;;;6.45;1.98;;;23.00;66.20;;;;;;5075220;28;20036;-56
2021/12/11 05:29:49;;;;;;;7.38;1.80;;;22.90;66.00;;;;;;5075089;28;20056;-60
2021/12/11 05:32:20;;;;;;;8.32;1.52;;;22.90;65.80;;;;;;5074593;28;20024;-60
2021/12/11 05:34:48;;;;;;;6.63;1.60;;;22.90;65.80;;;;;;5075109;28;20035;-59
2021/12/11 05:37:15;;;;;;;12.55;3.03;;;22.90;66.30;;;;;;5074959;28;20115;-57
2021/12/11 05:39:44;;;;;;;8.75;2.28;;;22.90;66.80;;;;;;5074596;28;20028;-62
2021/12/11 05:42:11;;;;;;;14.60;2.17;;;22.90;67.20;;;;;;5074599;28;20974;-54
2021/12/11 05:44:40;;;;;;;7.80;1.83;;;22.80;67.60;;;;;;5074967;28;20394;-62
2021/12/11 05:47:07;;;;;;;7.78;1.70;;;22.80;67.80;;;;;;5074622;28;20395;-64
2021/12/11 05:49:36;;;;;;;5.70;1.30;;;22.80;67.50;;;;;;5074593;28;20437;-58
2021/12/11 05:52:09;;;;;;;9.18;1.25;;;22.80;65.80;;;;;;5074097;28;20032;-62
2021/12/11 05:54:39;;;;;;;4.43;1.88;;;22.90;66.30;;;;;;5074686;28;20035;-49
2021/12/11 05:57:10;;;;;;;9.10;1.75;;;22.80;65.70;;;;;;5074687;28;20025;-52
2021/12/11 05:59:38;;;;;;;5.17;1.30;;;22.80;66.60;;;;;;5074748;28;20475;-60
2021/12/11 06:02:12;;;;;;;5.13;1.67;;;22.70;66.70;;;;;;5074188;28;20265;-63
2021/12/11 06:04:41;;;;;;;11.80;1.40;;;22.70;67.00;;;;;;5074166;28;20027;-60
2021/12/11 06:07:12;;;;;;;4.95;1.85;;;22.60;67.70;;;;;;5073904;28;20036;-58
2021/12/11 06:09:42;;;;;;;3.88;1.65;;;22.60;67.30;;;;;;5074312;28;20027;-60
2021/12/11 06:12:13;;;;;;;6.07;1.77;;;22.60;67.20;;;;;;5074292;28;20086;-57
2021/12/11 06:14:44;;;;;;;4.90;1.48;;;22.60;66.20;;;;;;5074215;28;20532;-56
2021/12/11 06:17:15;;;;;;;6.75;1.55;;;22.50;66.50;;;;;;5073507;28;20426;-56
2021/12/11 06:19:50;;;;;;;7.90;1.27;;;22.50;66.60;;;;;;5073917;28;20047;-60
2021/12/11 06:22:24;;;;;;;7.18;1.90;;;22.50;66.70;;;;;;5074271;28;20068;-60
2021/12/11 06:24:52;;;;;;;11.80;2.20;;;22.50;66.80;;;;;;5073975;28;20103;-63
2021/12/11 06:27:20;;;;;;;13.32;1.83;;;22.50;68.00;;;;;;5073588;28;20032;-59
2021/12/11 06:29:47;;;;;;;7.85;2.08;;;22.50;68.30;;;;;;5074108;28;20029;-64
2021/12/11 06:32:15;;;;;;;10.10;1.55;;;22.50;69.40;;;;;;5072421;28;20033;-59
2021/12/11 06:34:43;;;;;;;10.02;1.85;;;22.60;69.50;;;;;;5073678;28;20043;-57
2021/12/11 06:37:14;;;;;;;7.60;5.65;;;22.50;69.70;;;;;;5073687;28;20020;-64
2021/12/11 06:39:42;;;;;;;5.90;1.75;;;22.50;69.40;;;;;;5073621;28;20444;-60
2021/12/11 06:42:10;;;;;;;16.75;2.17;;;22.50;70.40;;;;;;5073570;28;20017;-64
2021/12/11 06:44:38;;;;;;;11.57;1.95;;;22.50;69.90;;;;;;5073840;28;20033;-59
2021/12/11 06:47:09;;;;;;;7.28;2.20;;;22.50;69.90;;;;;;5073546;28;20100;-54
2021/12/11 06:49:39;;;;;;;4.75;1.63;;;22.40;69.60;;;;;;5073427;28;20115;-60
2021/12/11 06:52:12;;;;;;;6.05;1.42;;;22.40;68.50;;;;;;5073320;28;20406;-63
2021/12/11 06:54:39;;;;;;;4.22;1.58;;;22.30;68.60;;;;;;5073264;28;20424;-65
2021/12/11 06:57:07;;;;;;;9.40;1.73;;;22.30;69.20;;;;;;5073013;28;20025;-59
2021/12/11 06:59:35;;;;;;;10.07;2.17;;;22.30;70.00;;;;;;5073164;28;20032;-62
2021/12/11 07:02:03;;;;;;;11.93;1.92;;;22.20;70.50;;;;;;5072633;28;20020;-52
2021/12/11 07:04:31;;;;;;;8.65;1.90;;;22.20;71.00;;;;;;5072536;28;20074;-60
2021/12/11 07:06:59;;;;;;;12.80;2.30;;;22.20;71.50;;;;;;5072934;28;20020;-64
2021/12/11 07:09:28;;;;;;;11.95;2.38;;;22.30;70.30;;;;;;5072695;28;20369;-61
2021/12/11 07:11:58;;;;;;;13.02;1.60;;;22.20;69.60;;;;;;5072718;28;20024;-60
2021/12/11 07:14:28;;;;;;;7.03;1.50;;;22.20;70.30;;;;;;5072859;28;20458;-61
2021/12/11 07:16:56;;;;;;;8.80;1.60;;;22.20;71.60;;;;;;5072083;28;20016;-63
2021/12/11 07:19:24;;;;;;;5.22;1.48;;;22.20;71.50;;;;;;5071767;28;20025;-58
2021/12/11 07:21:54;;;;;;;5.00;1.48;;;22.30;72.00;;;;;;5072733;28;20044;-54
2021/12/11 07:24:27;;;;;;;4.30;1.45;;;22.30;72.10;;;;;;5072766;28;20502;-54
2021/12/11 07:26:54;;;;;;;5.22;1.67;;;22.30;72.00;;;;;;5071321;28;20104;-63
2021/12/11 07:29:22;;;;;;;4.88;1.50;;;22.30;72.30;;;;;;5072429;28;20028;-64
2021/12/11 07:31:53;;;;;;;4.97;1.40;;;22.30;72.30;;;;;;5072234;28;20106;-54
2021/12/11 07:34:39;;;;;;;5.30;1.35;;;22.30;72.80;;;;;;5064189;28;20033;-52
2021/12/11 07:37:15;;;;;;;6.53;1.60;;;22.30;72.80;;;;;;5068899;28;20031;-56
2021/12/11 07:39:43;;;;;;;7.13;1.80;;;22.30;73.00;;;;;;5068622;28;20052;-57
2021/12/11 07:42:11;;;;;;;4.40;1.60;;;22.30;72.90;;;;;;5069951;28;20020;-56
2021/12/11 07:44:38;;;;;;;4.53;1.63;;;22.30;72.90;;;;;;5068676;28;20079;-55
2021/12/11 07:47:07;;;;;;;6.38;1.90;;;22.30;73.00;;;;;;5068302;28;20028;-63
2021/12/11 07:49:35;;;;;;;8.70;1.80;;;22.30;73.30;;;;;;5066335;28;20063;-53
2021/12/11 07:52:03;;;;;;;3.72;1.40;;;22.30;73.60;;;;;;5065984;28;20051;-54
2021/12/11 07:54:30;;;;;;;5.10;1.30;;;22.30;73.70;;;;;;5069215;28;20044;-49
2021/12/11 07:56:59;;;;;;;6.80;1.55;;;22.30;73.80;;;;;;5068934;28;20352;-52
2021/12/11 07:59:26;;;;;;;4.18;1.30;;;22.20;74.20;;;;;;5066218;28;20039;-58
2021/12/11 08:01:55;;;;;;;5.15;1.42;;;22.20;74.30;;;;;;5069856;28;20471;-54
2021/12/11 08:04:23;;;;;;;5.40;1.52;;;22.20;74.50;;;;;;5069353;28;20024;-61
2021/12/11 08:06:52;;;;;;;4.45;1.55;;;22.20;74.60;;;;;;5068734;28;20032;-58
2021/12/11 08:09:22;;;;;;;5.43;1.77;;;22.20;74.70;;;;;;5067390;28;20035;-56
2021/12/11 08:11:50;;;;;;;6.70;1.40;;;22.20;74.80;;;;;;5069336;28;20357;-52
2021/12/11 08:14:20;;;;;;;5.82;1.80;;;22.20;74.90;;;;;;5068228;28;20039;-56
2021/12/11 08:16:49;;;;;;;3.38;1.17;;;22.20;74.80;;;;;;5070172;28;20467;-53
2021/12/11 08:19:19;;;;;;;3.85;1.60;;;22.20;75.00;;;;;;5067573;28;20040;-51
2021/12/11 08:21:49;;;;;;;4.15;1.65;;;22.20;75.20;;;;;;5069266;28;20525;-53
2021/12/11 08:24:18;;;;;;;6.55;1.90;;;22.20;75.20;;;;;;5069411;28;20069;-54
2021/12/11 08:26:46;;;;;;;4.95;2.00;;;22.10;75.40;;;;;;5069079;28;20032;-57
2021/12/11 08:29:15;;;;;;;6.97;1.60;;;22.10;75.60;;;;;;5068924;28;20021;-56
2021/12/11 08:31:45;;;;;;;4.70;1.75;;;22.10;75.80;;;;;;5073125;28;20027;-62
2021/12/11 08:34:12;;;;;;;5.72;1.80;;;22.10;75.80;;;;;;5075781;28;20548;-60
2021/12/11 08:36:41;;;;;;;4.88;1.63;;;22.00;75.90;;;;;;5076236;28;20017;-59
2021/12/11 08:39:13;;;;;;;3.63;1.30;;;22.00;76.00;;;;;;5068571;28;20020;-56
2021/12/11 08:41:41;;;;;;;8.48;1.70;;;22.00;76.10;;;;;;5072916;28;20058;-57
2021/12/11 08:44:14;;;;;;;4.90;1.33;;;21.90;76.50;;;;;;5073337;28;20037;-58
2021/12/11 08:46:57;;;;;;;4.93;1.92;;;22.00;76.70;;;;;;5069133;28;20102;-55
2021/12/11 08:49:28;;;;;;;5.38;1.70;;;21.90;76.70;;;;;;5071490;28;20098;-53
2021/12/11 08:52:21;;;;;;;6.30;1.40;;;21.90;76.60;;;;;;5070598;28;20036;-61
2021/12/11 08:54:50;;;;;;;6.13;1.67;;;21.90;76.70;;;;;;5072791;28;20041;-55
2021/12/11 08:57:21;;;;;;;5.50;1.52;;;21.90;77.00;;;;;;5066736;28;20021;-50
2021/12/11 08:59:57;;;;;;;4.85;1.80;;;21.90;77.00;;;;;;5070353;28;20044;-55
2021/12/11 09:02:27;;;;;;;5.28;1.50;;;21.80;77.20;;;;;;5071725;28;20039;-57
2021/12/11 09:05:05;;;;;;;4.15;1.80;;;21.80;77.20;;;;;;5072387;28;20021;-52
2021/12/11 09:07:50;;;;;;;5.85;1.90;;;21.80;77.40;;;;;;5063323;28;20052;-56
2021/12/11 09:10:21;;;;;;;4.05;1.10;;;21.70;77.40;;;;;;5070970;28;20016;-48
2021/12/11 09:13:04;;;;;;;4.95;1.55;;;21.80;77.80;;;;;;5072630;28;20088;-53
2021/12/11 09:15:41;;;;;;;4.80;1.38;;;21.70;77.60;;;;;;5072297;28;20382;-48
2021/12/11 09:18:18;;;;;;;4.28;1.58;;;21.70;77.60;;;;;;5069076;28;20028;-48
2021/12/11 09:20:55;;;;;;;3.90;1.35;;;21.70;77.60;;;;;;5072286;28;20033;-61
2021/12/11 09:23:36;;;;;;;5.70;1.90;;;21.70;77.60;;;;;;5071188;28;20048;-56
2021/12/11 09:26:06;;;;;;;2.97;1.33;;;21.70;77.90;;;;;;5068600;28;20494;-54
2021/12/11 09:28:47;;;;;;;4.20;1.63;;;21.70;77.90;;;;;;5069258;28;20056;-48
2021/12/11 09:31:21;;;;;;;7.03;2.05;;;21.70;77.90;;;;;;5070116;28;20113;-49
2021/12/11 09:33:57;;;;;;;3.63;1.65;;;21.70;78.10;;;;;;5072515;28;20082;-54
2021/12/11 09:36:32;;;;;;;5.20;1.80;;;21.60;78.20;;;;;;5071243;28;20029;-49
2021/12/11 09:39:23;;;;;;;5.05;1.10;;;21.60;78.30;;;;;;5070879;28;20035;-51
2021/12/11 09:41:49;;;;;;;4.38;1.33;;;21.60;78.40;;;;;;5071136;28;20025;-55
2021/12/11 09:44:43;;;;;;;5.60;2.03;;;21.60;78.50;;;;;;5070648;28;20112;-53
2021/12/11 09:47:17;;;;;;;5.00;1.45;;;21.60;78.50;;;;;;5067053;28;20027;-60
2021/12/11 09:49:57;;;;;;;5.90;1.30;;;21.60;78.60;;;;;;5068995;28;20035;-56
2021/12/11 09:52:26;;;;;;;6.50;1.80;;;21.50;78.40;;;;;;5070753;28;20064;-54
2021/12/11 09:54:59;;;;;;;5.45;1.50;;;21.60;78.70;;;;;;5071923;28;20032;-59
2021/12/11 09:57:34;;;;;;;5.03;1.83;;;21.50;78.70;;;;;;5069069;28;20405;-54
2021/12/11 10:00:08;;;;;;;5.22;1.52;;;21.50;78.80;;;;;;5069551;28;20491;-56
2021/12/11 10:02:36;;;;;;;5.43;2.03;;;21.50;78.90;;;;;;5071539;28;20024;-60
2021/12/11 10:05:36;;;;;;;4.95;1.60;;;21.50;79.00;;;;;;5070707;28;20491;-55
2021/12/11 10:11:04;;;;;;;9.63;1.98;;;21.50;79.00;;;;;;5071636;28;20052;-58
2021/12/11 10:13:34;;;;;;;3.70;1.17;;;21.40;79.00;;;;;;5071365;28;20475;-51
2021/12/11 10:16:02;;;;;;;5.90;1.70;;;21.40;79.10;;;;;;5070905;28;20032;-58
2021/12/11 10:18:31;;;;;;;4.32;1.50;;;21.40;79.80;;;;;;5068091;28;20135;-54
2021/12/11 10:21:07;;;;;;;5.40;1.70;;;21.40;79.10;;;;;;5071654;28;20028;-61
2021/12/11 10:23:39;;;;;;;6.28;1.65;;;21.40;79.30;;;;;;5070553;28;20037;-55
2021/12/11 10:26:10;;;;;;;6.65;1.60;;;21.40;79.30;;;;;;5071373;28;20029;-55
2021/12/11 10:28:41;;;;;;;5.13;1.83;;;21.40;79.40;;;;;;5068031;28;20479;-58
2021/12/11 10:31:26;;;;;;;6.60;1.98;;;21.30;79.30;;;;;;5070569;28;20024;-52
2021/12/11 10:33:54;;;;;;;7.82;1.92;;;21.30;79.50;;;;;;5067362;28;20032;-56
2021/12/11 10:36:27;;;;;;;7.47;1.77;;;21.30;79.40;;;;;;5071031;28;20036;-58
2021/12/11 10:38:58;;;;;;;5.25;1.48;;;21.30;79.60;;;;;;5068052;28;20036;-56
2021/12/11 10:41:28;;;;;;;5.07;1.85;;;21.30;79.60;;;;;;5070695;28;20044;-58
2021/12/11 10:44:28;;;;;;;4.43;1.23;;;21.30;79.70;;;;;;5070469;28;20498;-55
2021/12/11 10:47:10;;;;;;;5.35;2.15;;;21.30;79.70;;;;;;5050106;28;20119;-57
2021/12/11 10:49:39;;;;;;;6.97;1.40;;;21.30;79.70;;;;;;5071045;28;20864;-50
2021/12/11 10:52:14;;;;;;;5.70;1.65;;;21.30;79.70;;;;;;5070045;28;20127;-49
2021/12/11 10:54:42;;;;;;;6.43;1.65;;;21.30;79.80;;;;;;5069757;28;20386;-50
2021/12/11 10:57:10;;;;;;;4.63;1.30;;;21.30;79.90;;;;;;5067499;28;20028;-55
2021/12/11 10:59:42;;;;;;;4.47;1.88;;;21.20;79.70;;;;;;5070783;28;20037;-53
2021/12/11 11:02:17;;;;;;;;;;;21.20;79.80;;;;;;5071098;28;20016;-53
2021/12/11 11:04:55;;;;;;;43.55;30.33;;;21.20;80.00;;;;;;5067218;28;19908;-57
2021/12/11 11:07:24;;;;;;;31.17;26.20;;;21.20;80.00;;;;;;5064694;28;20025;-56
2021/12/11 11:09:52;;;;;;;18.85;14.40;;;21.20;80.60;;;;;;5070214;28;20028;-58
2021/12/11 11:12:23;;;;;;;16.30;11.05;;;21.20;80.00;;;;;;5070437;28;20016;-57
2021/12/11 11:14:53;;;;;;;25.48;18.45;;;21.20;80.10;;;;;;5070431;28;20036;-53
2021/12/11 11:17:24;;;;;;;32.60;25.23;;;21.20;80.10;;;;;;5066777;28;20048;-55
2021/12/11 11:19:54;;;;;;;45.33;33.30;;;21.20;80.10;;;;;;5067006;28;20024;-52
2021/12/11 11:22:29;;;;;;;23.88;19.27;;;21.10;80.20;;;;;;5066729;28;20575;-59
2021/12/11 11:25:17;;;;;;;22.60;15.23;;;21.10;80.20;;;;;;5068684;28;20060;-56
2021/12/11 11:27:52;;;;;;;23.65;16.85;;;21.10;80.20;;;;;;5066763;28;20387;-52
2021/12/11 11:30:27;;;;;;;22.38;20.02;;;21.10;80.40;;;;;;5069543;28;20025;-52
2021/12/11 11:32:57;;;;;;;26.25;22.52;;;21.10;80.50;;;;;;5065227;28;20035;-61
2021/12/11 11:35:28;;;;;;;31.00;24.35;;;21.10;80.60;;;;;;5067076;28;20552;-60
2021/12/11 11:37:58;;;;;;;32.90;26.58;;;21.00;80.70;;;;;;5072991;28;20039;-61
2021/12/11 11:40:30;;;;;;;33.42;26.65;;;21.10;80.70;;;;;;5072731;28;20032;-62
2021/12/11 11:42:58;;;;;;;29.95;24.92;;;21.00;80.60;;;;;;5069136;28;20068;-59
2021/12/11 11:45:28;;;;;;;28.20;23.40;;;21.00;80.70;;;;;;5072943;28;20029;-59
2021/12/11 11:48:05;;;;;;;28.02;21.67;;;21.00;80.80;;;;;;5072625;28;20062;-55
2021/12/11 11:50:37;;;;;;;28.70;23.35;;;21.00;80.80;;;;;;5073119;28;20036;-61
2021/12/11 11:53:06;;;;;;;28.25;21.15;;;21.00;80.90;;;;;;5072322;28;20056;-51
2021/12/11 11:55:38;;;;;;;25.58;20.95;;;21.00;80.90;;;;;;5073037;28;20120;-60
2021/12/11 11:58:16;;;;;;;26.50;21.45;;;20.90;80.90;;;;;;5072133;28;20078;-59
2021/12/11 12:00:57;;;;;;;24.73;19.98;;;20.90;80.90;;;;;;5072717;28;20407;-60
2021/12/11 12:03:28;;;;;;;25.63;19.92;;;20.90;81.00;;;;;;5071738;28;20024;-62
2021/12/11 12:06:10;;;;;;;24.23;19.70;;;20.90;81.10;;;;;;5072202;28;20039;-51
2021/12/11 12:08:42;;;;;;;22.27;17.88;;;20.90;81.10;;;;;;5071476;28;20025;-63
2021/12/11 12:11:13;;;;;;;24.33;17.23;;;20.90;81.20;;;;;;5071150;28;20033;-62
2021/12/11 12:13:40;;;;;;;27.33;18.48;;;20.90;81.60;;;;;;5071324;28;20090;-61
2021/12/11 12:16:11;;;;;;;25.38;18.25;;;20.80;81.40;;;;;;5071550;28;20025;-61
2021/12/11 12:18:41;;;;;;;21.83;17.20;;;20.80;81.50;;;;;;5072474;28;20028;-58
2021/12/11 12:21:19;;;;;;;21.35;16.13;;;20.80;81.50;;;;;;5072398;28;20057;-61
2021/12/11 12:23:47;;;;;;;19.92;14.32;;;20.80;81.70;;;;;;5072456;28;20100;-61
2021/12/11 12:26:25;;;;;;;17.27;13.95;;;20.80;81.90;;;;;;5072333;28;20028;-61
2021/12/11 12:28:54;;;;;;;18.55;14.18;;;20.80;81.90;;;;;;5072145;28;20047;-57
2021/12/11 12:31:29;;;;;;;22.45;13.85;;;20.80;82.20;;;;;;5072585;28;20021;-60
2021/12/11 12:33:57;;;;;;;16.92;13.07;;;20.70;82.20;;;;;;5072044;28;20093;-62
2021/12/11 12:36:25;;;;;;;17.23;12.02;;;20.70;82.40;;;;;;5065905;28;20071;-53
2021/12/11 12:38:53;;;;;;;17.83;13.73;;;20.70;82.50;;;;;;5067655;28;20036;-59
2021/12/11 12:41:38;;;;;;;18.33;13.27;;;20.70;82.50;;;;;;5066704;28;20456;-56
2021/12/11 12:44:28;;;;;;;16.90;11.65;;;20.60;82.50;;;;;;5068896;28;20087;-58
2021/12/11 12:47:38;;;;;;;23.25;13.02;;;20.60;82.50;;;;;;5066743;28;20024;-62
2021/12/11 12:50:22;;;;;;;15.32;11.57;;;20.60;82.50;;;;;;5065859;28;20119;-56
2021/12/11 12:52:49;;;;;;;18.08;12.07;;;20.60;82.50;;;;;;5068856;28;20045;-63
2021/12/11 12:55:33;;;;;;;18.08;11.48;;;20.60;82.60;;;;;;5069889;28;20032;-55
2021/12/11 12:58:10;;;;;;;15.05;11.70;;;20.60;82.60;;;;;;5066306;28;20063;-60
2021/12/11 13:00:55;;;;;;;17.08;11.77;;;20.50;82.60;;;;;;5069780;28;20056;-46
2021/12/11 13:03:39;;;;;;;15.75;11.05;;;20.50;82.60;;;;;;5067076;28;20029;-51
2021/12/11 13:06:13;;;;;;;14.68;11.20;;;20.50;82.70;;;;;;5068294;28;20798;-56
2021/12/11 13:08:47;;;;;;;14.48;10.20;;;20.50;82.70;;;;;;5065492;28;20082;-58
2021/12/11 13:11:23;;;;;;;12.80;9.68;;;20.50;82.80;;;;;;5068931;28;20132;-55
2021/12/11 13:13:52;;;;;;;17.85;10.95;;;20.50;82.80;;;;;;5065260;28;20036;-57
2021/12/11 13:16:27;;;;;;;14.07;10.75;;;20.40;82.70;;;;;;5069807;28;20059;-59
2021/12/11 13:19:05;;;;;;;13.05;10.05;;;20.40;82.80;;;;;;5070478;28;20040;-60
2021/12/11 13:21:47;;;;;;;17.73;10.32;;;20.40;82.80;;;;;;5069940;28;20036;-60
2021/12/11 13:24:16;;;;;;;13.85;10.18;;;20.40;82.80;;;;;;5072296;28;20024;-59
2021/12/11 13:26:48;;;;;;;13.95;10.20;;;20.40;82.80;;;;;;5070026;28;20107;-52
2021/12/11 13:29:19;;;;;;;14.55;10.23;;;20.40;83.00;;;;;;5072290;28;20017;-51